createdAt,value
2018-03-31T00:00:56.672Z,8.52
2018-03-31T00:03:24.907Z,8.70
2018-03-31T00:05:52.811Z,8.70
2018-03-31T00:08:20.729Z,8.70
2018-03-31T00:10:48.638Z,8.39
2018-03-31T00:13:16.482Z,8.47
2018-03-31T00:15:44.432Z,8.40
2018-03-31T00:18:12.304Z,8.60
2018-03-31T00:20:40.333Z,8.75
2018-03-31T00:23:08.285Z,8.81
2018-03-31T00:25:36.166Z,8.38
2018-03-31T00:28:04.145Z,8.52
2018-03-31T00:30:32.041Z,8.71
2018-03-31T00:32:59.919Z,8.52
2018-03-31T00:35:27.813Z,8.39
2018-03-31T00:37:55.726Z,8.07
2018-03-31T00:40:23.625Z,7.90
2018-03-31T00:42:51.552Z,8.26
2018-03-31T00:45:19.466Z,8.23
2018-03-31T00:47:47.406Z,7.93
2018-03-31T00:50:15.279Z,8.07
2018-03-31T00:52:43.271Z,8.35
2018-03-31T00:55:11.135Z,8.24
2018-03-31T00:57:39.085Z,8.22
2018-03-31T01:00:07.005Z,8.42
2018-03-31T01:02:34.921Z,8.33
2018-03-31T01:05:02.959Z,8.13
2018-03-31T01:07:30.833Z,8.36
2018-03-31T01:09:58.707Z,8.25
2018-03-31T01:12:26.636Z,8.27
2018-03-31T01:14:54.507Z,8.46
2018-03-31T01:17:22.440Z,8.34
2018-03-31T01:19:50.330Z,8.46
2018-03-31T01:22:18.221Z,7.99
2018-03-31T01:24:46.136Z,7.88
2018-03-31T01:27:14.024Z,8.20
2018-03-31T01:29:42.088Z,8.36
2018-03-31T01:32:10.015Z,8.10
2018-03-31T01:34:37.942Z,7.83
2018-03-31T01:37:05.816Z,7.93
2018-03-31T01:39:33.743Z,7.81
2018-03-31T01:42:01.648Z,8.17
2018-03-31T01:44:29.587Z,7.88
2018-03-31T01:46:57.581Z,8.17
2018-03-31T01:49:25.496Z,7.90
2018-03-31T01:51:53.434Z,8.08
2018-03-31T01:54:21.366Z,8.15
2018-03-31T01:56:49.277Z,7.94
2018-03-31T01:59:17.321Z,8.14
2018-03-31T02:01:45.233Z,8.05
2018-03-31T02:04:13.219Z,7.81
2018-03-31T02:06:41.182Z,8.06
2018-03-31T02:09:09.062Z,8.15
2018-03-31T02:11:37.004Z,8.22
2018-03-31T02:14:04.919Z,8.11
2018-03-31T02:16:32.816Z,8.01
2018-03-31T02:19:00.765Z,8.03
2018-03-31T02:21:28.690Z,8.01
2018-03-31T02:23:56.618Z,8.15
2018-03-31T02:26:24.476Z,7.78
2018-03-31T02:28:52.445Z,8.12
2018-03-31T02:31:20.329Z,7.99
2018-03-31T02:33:48.218Z,8.02
2018-03-31T02:36:16.132Z,8.01
2018-03-31T02:38:44.020Z,7.63
2018-03-31T02:41:11.937Z,7.73
2018-03-31T02:43:39.821Z,7.93
2018-03-31T02:46:07.743Z,7.95
2018-03-31T02:48:35.717Z,7.87
2018-03-31T02:51:03.578Z,7.78
2018-03-31T02:53:31.498Z,7.91
2018-03-31T02:55:59.436Z,7.80
2018-03-31T02:58:27.340Z,7.99
2018-03-31T03:00:55.407Z,7.89
2018-03-31T03:03:23.554Z,7.80
2018-03-31T03:05:51.475Z,7.94
2018-03-31T03:08:19.529Z,7.80
2018-03-31T03:10:47.400Z,7.85
2018-03-31T03:13:15.344Z,7.91
2018-03-31T03:15:42.961Z,7.69
2018-03-31T03:18:10.568Z,7.36
2018-03-31T03:20:38.136Z,7.58
2018-03-31T03:23:05.771Z,7.45
2018-03-31T03:25:33.340Z,7.88
2018-03-31T03:28:01.005Z,7.43
2018-03-31T03:30:28.611Z,7.71
2018-03-31T03:32:56.211Z,7.51
2018-03-31T03:35:23.822Z,7.43
2018-03-31T03:37:51.405Z,7.41
2018-03-31T03:40:19.021Z,7.83
2018-03-31T03:42:46.579Z,7.79
2018-03-31T03:45:14.211Z,7.22
2018-03-31T03:47:41.818Z,7.50
2018-03-31T03:50:09.413Z,7.60
2018-03-31T03:52:37.165Z,7.56
2018-03-31T03:55:04.759Z,7.45
2018-03-31T03:57:32.324Z,7.83
2018-03-31T03:59:59.932Z,7.90
2018-03-31T04:02:27.655Z,7.73
2018-03-31T04:04:55.220Z,7.80
2018-03-31T04:07:22.864Z,7.95
2018-03-31T04:09:50.475Z,7.92
2018-03-31T04:12:18.061Z,7.96
2018-03-31T04:14:45.776Z,8.04
2018-03-31T04:17:13.388Z,8.03
2018-03-31T04:19:41.012Z,7.95
2018-03-31T04:22:08.588Z,8.11
2018-03-31T04:24:36.204Z,8.00
2018-03-31T04:27:03.983Z,8.21
2018-03-31T04:29:31.553Z,8.28
2018-03-31T04:31:59.356Z,7.84
2018-03-31T04:34:26.941Z,7.98
2018-03-31T04:36:54.509Z,8.43
2018-03-31T04:39:22.117Z,8.27
2018-03-31T04:41:49.687Z,8.01
2018-03-31T04:44:17.316Z,8.08
2018-03-31T04:46:44.956Z,8.49
2018-03-31T04:49:12.541Z,8.39
2018-03-31T04:51:40.184Z,8.26
2018-03-31T04:54:07.844Z,8.71
2018-03-31T04:56:35.408Z,8.58
2018-03-31T04:59:03.052Z,8.71
2018-03-31T05:01:30.697Z,9.14
2018-03-31T05:03:58.308Z,9.33
2018-03-31T05:06:25.939Z,9.20
2018-03-31T05:08:53.598Z,9.21
2018-03-31T05:11:21.248Z,9.52
2018-03-31T05:13:48.850Z,9.28
2018-03-31T05:16:16.460Z,9.16
2018-03-31T05:18:44.139Z,9.40
2018-03-31T05:21:11.727Z,9.66
2018-03-31T05:23:39.534Z,9.63
2018-03-31T05:26:07.157Z,9.55
2018-03-31T05:28:34.862Z,9.66
2018-03-31T05:31:02.579Z,9.74
2018-03-31T05:33:30.204Z,9.78
2018-03-31T05:35:57.780Z,10.03
2018-03-31T05:38:25.355Z,10.04
2018-03-31T05:40:52.934Z,10.11
2018-03-31T05:43:20.529Z,10.10
2018-03-31T05:45:48.144Z,10.20
2018-03-31T05:48:15.708Z,10.04
2018-03-31T05:50:43.295Z,10.40
2018-03-31T05:53:10.922Z,10.38
2018-03-31T05:55:38.533Z,10.66
2018-03-31T05:58:06.118Z,10.49
2018-03-31T06:00:33.772Z,10.63
2018-03-31T06:03:01.348Z,10.61
2018-03-31T06:05:28.921Z,10.84
2018-03-31T06:07:56.518Z,10.96
2018-03-31T06:10:24.161Z,11.02
2018-03-31T06:12:51.748Z,11.20
2018-03-31T06:15:19.340Z,11.26
2018-03-31T06:17:46.953Z,11.21
2018-03-31T06:20:14.646Z,11.54
2018-03-31T06:22:42.243Z,11.68
2018-03-31T06:25:09.878Z,11.93
2018-03-31T06:27:37.481Z,12.02
2018-03-31T06:30:05.040Z,12.15
2018-03-31T06:32:32.663Z,12.31
2018-03-31T06:35:00.245Z,12.28
2018-03-31T06:37:27.877Z,12.37
2018-03-31T06:39:55.519Z,12.43
2018-03-31T06:42:23.134Z,12.32
2018-03-31T06:44:50.706Z,12.76
2018-03-31T06:47:18.340Z,12.67
2018-03-31T06:49:46.037Z,12.20
2018-03-31T06:52:13.618Z,12.65
2018-03-31T06:54:41.201Z,12.96
2018-03-31T06:57:08.824Z,13.02
2018-03-31T06:59:36.438Z,12.62
2018-03-31T07:02:04.000Z,12.65
2018-03-31T07:04:31.622Z,13.07
2018-03-31T07:06:59.218Z,12.71
2018-03-31T07:09:26.848Z,13.02
2018-03-31T07:11:54.441Z,13.27
2018-03-31T07:14:22.044Z,13.30
2018-03-31T07:16:49.626Z,12.80
2018-03-31T07:19:17.245Z,13.24
2018-03-31T07:21:44.868Z,13.93
2018-03-31T07:24:12.585Z,13.77
2018-03-31T07:26:40.297Z,13.83
2018-03-31T07:29:07.877Z,13.92
2018-03-31T07:31:35.501Z,13.33
2018-03-31T07:34:03.098Z,13.81
2018-03-31T07:36:30.753Z,14.05
2018-03-31T07:38:58.341Z,13.82
2018-03-31T07:41:25.923Z,13.31
2018-03-31T07:43:53.561Z,13.33
2018-03-31T07:46:21.252Z,13.73
2018-03-31T07:48:48.902Z,14.60
2018-03-31T07:51:16.528Z,15.03
2018-03-31T07:53:44.333Z,15.14
2018-03-31T07:56:11.920Z,15.11
2018-03-31T07:58:39.495Z,15.41
2018-03-31T08:01:07.132Z,15.87
2018-03-31T08:03:34.708Z,16.67
2018-03-31T08:06:02.881Z,16.60
2018-03-31T08:08:30.554Z,17.09
2018-03-31T08:10:58.136Z,17.84
2018-03-31T08:13:25.745Z,18.14
2018-03-31T08:15:53.432Z,18.36
2018-03-31T08:18:21.198Z,18.03
2018-03-31T08:20:48.846Z,18.06
2018-03-31T08:23:16.484Z,17.97
2018-03-31T08:25:44.138Z,17.72
2018-03-31T08:28:11.726Z,17.90
2018-03-31T08:30:39.356Z,18.19
2018-03-31T08:33:06.940Z,18.06
2018-03-31T08:35:34.540Z,18.54
2018-03-31T08:38:02.173Z,18.53
2018-03-31T08:40:29.748Z,18.11
2018-03-31T08:42:57.387Z,18.70
2018-03-31T08:45:24.975Z,18.83
2018-03-31T08:47:52.676Z,19.17
2018-03-31T08:50:20.264Z,19.61
2018-03-31T08:52:47.915Z,19.72
2018-03-31T08:55:15.533Z,18.98
2018-03-31T08:57:43.135Z,19.04
2018-03-31T09:00:10.708Z,18.85
2018-03-31T09:02:38.289Z,18.48
2018-03-31T09:05:05.909Z,18.22
2018-03-31T09:07:33.522Z,17.87
2018-03-31T09:10:01.179Z,17.88
2018-03-31T09:12:28.748Z,18.27
2018-03-31T09:14:57.339Z,18.07
2018-03-31T09:17:25.028Z,18.42
2018-03-31T09:19:52.676Z,18.56
2018-03-31T09:22:20.347Z,18.50
2018-03-31T09:24:47.941Z,18.67
2018-03-31T09:27:15.917Z,18.13
2018-03-31T09:29:43.621Z,18.09
2018-03-31T09:32:11.223Z,18.77
2018-03-31T09:34:38.834Z,19.28
2018-03-31T09:37:06.413Z,19.39
2018-03-31T09:39:34.022Z,19.77
2018-03-31T09:42:01.642Z,18.69
2018-03-31T09:44:29.293Z,19.86
2018-03-31T09:46:56.896Z,19.53
2018-03-31T09:49:24.529Z,19.54
2018-03-31T09:51:52.158Z,20.47
2018-03-31T09:54:19.822Z,20.17
2018-03-31T09:56:47.416Z,19.81
2018-03-31T09:59:15.037Z,20.59
2018-03-31T10:01:42.610Z,21.48
2018-03-31T10:04:10.196Z,22.80
2018-03-31T10:06:37.809Z,22.39
2018-03-31T10:09:05.382Z,22.73
2018-03-31T10:11:33.353Z,22.78
2018-03-31T10:14:01.006Z,23.03
2018-03-31T10:16:28.649Z,23.15
2018-03-31T10:18:56.246Z,23.71
2018-03-31T10:21:23.879Z,24.18
2018-03-31T10:23:51.600Z,24.94
2018-03-31T10:26:19.213Z,24.51
2018-03-31T10:28:46.816Z,24.57
2018-03-31T10:31:14.433Z,24.07
2018-03-31T10:33:42.038Z,22.63
2018-03-31T10:36:09.631Z,22.64
2018-03-31T10:38:37.259Z,23.11
2018-03-31T10:41:04.828Z,22.70
2018-03-31T10:43:32.392Z,22.86
2018-03-31T10:45:59.997Z,23.13
2018-03-31T10:48:27.564Z,23.77
2018-03-31T10:50:55.173Z,24.29
2018-03-31T10:53:22.737Z,25.54
2018-03-31T10:55:50.321Z,26.67
2018-03-31T10:58:17.928Z,27.13
2018-03-31T11:00:45.565Z,26.72
2018-03-31T11:03:13.174Z,26.28
2018-03-31T11:05:40.855Z,26.22
2018-03-31T11:08:08.490Z,25.88
2018-03-31T11:10:36.128Z,25.45
2018-03-31T11:13:03.976Z,24.53
2018-03-31T11:15:32.033Z,24.70
2018-03-31T11:17:59.601Z,25.89
2018-03-31T11:20:27.164Z,26.00
2018-03-31T11:22:55.144Z,23.84
2018-03-31T11:25:22.774Z,23.30
2018-03-31T11:27:50.334Z,22.95
2018-03-31T11:30:18.120Z,24.09
2018-03-31T11:32:45.706Z,25.42
2018-03-31T11:35:13.272Z,26.00
2018-03-31T11:37:41.200Z,24.52
2018-03-31T11:40:08.757Z,25.17
2018-03-31T11:42:36.312Z,25.21
2018-03-31T11:45:04.494Z,24.92
2018-03-31T11:47:32.076Z,24.55
2018-03-31T11:49:59.653Z,24.02
2018-03-31T11:52:27.408Z,24.26
2018-03-31T11:54:54.980Z,24.00
2018-03-31T11:57:22.553Z,22.91
2018-03-31T11:59:50.699Z,22.85
2018-03-31T12:02:18.302Z,23.21
2018-03-31T12:04:45.861Z,23.71
2018-03-31T12:07:13.773Z,24.16
2018-03-31T12:09:41.350Z,24.27
2018-03-31T12:12:08.901Z,24.99
2018-03-31T12:14:36.869Z,25.02
2018-03-31T12:17:04.437Z,24.77
2018-03-31T12:19:32.006Z,25.05
2018-03-31T12:21:59.944Z,25.77
2018-03-31T12:24:27.520Z,26.32
2018-03-31T12:26:55.095Z,26.11
2018-03-31T12:29:22.950Z,25.46
2018-03-31T12:31:50.520Z,25.07
2018-03-31T12:34:18.093Z,25.11
2018-03-31T12:36:46.145Z,25.08
2018-03-31T12:39:13.716Z,25.76
2018-03-31T12:41:41.417Z,25.61
2018-03-31T12:44:09.024Z,26.43
2018-03-31T12:46:36.598Z,25.99
2018-03-31T12:49:04.177Z,26.34
2018-03-31T12:51:33.159Z,26.32
2018-03-31T12:54:00.814Z,25.49
2018-03-31T12:56:28.395Z,27.53
2018-03-31T12:58:56.005Z,25.14
2018-03-31T13:01:23.581Z,24.73
2018-03-31T13:03:51.213Z,25.14
2018-03-31T13:06:18.821Z,25.71
2018-03-31T13:08:46.387Z,26.46
2018-03-31T13:11:13.997Z,26.34
2018-03-31T13:13:41.579Z,27.36
2018-03-31T13:16:09.311Z,27.67
2018-03-31T13:18:37.096Z,24.90
2018-03-31T13:21:04.662Z,26.58
2018-03-31T13:23:32.297Z,28.69
2018-03-31T13:26:00.054Z,29.85
2018-03-31T13:28:27.696Z,28.11
2018-03-31T13:30:55.287Z,26.33
2018-03-31T13:33:23.024Z,25.06
2018-03-31T13:35:50.725Z,24.87
2018-03-31T13:38:18.288Z,25.13
2018-03-31T13:40:45.949Z,25.63
2018-03-31T13:43:13.524Z,25.31
2018-03-31T13:45:41.105Z,24.71
2018-03-31T13:48:08.759Z,24.93
2018-03-31T13:50:36.353Z,24.91
2018-03-31T13:53:03.973Z,26.11
2018-03-31T13:55:31.557Z,26.73
2018-03-31T13:57:59.133Z,27.35
2018-03-31T14:00:26.731Z,24.69
2018-03-31T14:02:54.319Z,25.04
2018-03-31T14:05:21.936Z,25.22
2018-03-31T14:07:49.504Z,25.23
2018-03-31T14:10:17.165Z,25.36
2018-03-31T14:12:44.817Z,27.08
2018-03-31T14:15:12.521Z,26.61
2018-03-31T14:17:40.131Z,25.10
2018-03-31T14:20:07.752Z,25.11
2018-03-31T14:22:35.339Z,24.82
2018-03-31T14:25:03.060Z,24.00
2018-03-31T14:27:30.733Z,23.07
2018-03-31T14:29:58.426Z,22.71
2018-03-31T14:32:26.120Z,22.71
2018-03-31T14:34:53.697Z,23.08
2018-03-31T14:37:21.321Z,23.59
2018-03-31T14:39:48.880Z,23.24
2018-03-31T14:42:16.507Z,22.58
2018-03-31T14:44:44.125Z,22.05
2018-03-31T14:47:11.716Z,22.70
2018-03-31T14:49:39.351Z,23.19
2018-03-31T14:52:06.930Z,22.79
2018-03-31T14:54:34.556Z,22.97
2018-03-31T14:57:02.326Z,22.79
2018-03-31T14:59:30.122Z,24.37
2018-03-31T15:01:58.060Z,24.27
2018-03-31T15:04:25.733Z,24.26
2018-03-31T15:06:53.356Z,24.06
2018-03-31T15:09:21.302Z,23.42
2018-03-31T15:11:49.175Z,23.04
2018-03-31T15:14:17.869Z,22.85
2018-03-31T15:16:45.531Z,22.94
2018-03-31T15:19:13.355Z,23.16
2018-03-31T15:21:41.293Z,22.82
2018-03-31T15:24:08.979Z,23.17
2018-03-31T15:26:36.655Z,23.64
2018-03-31T15:29:04.242Z,24.23
2018-03-31T15:31:32.083Z,24.35
2018-03-31T15:33:59.719Z,24.44
2018-03-31T15:36:27.372Z,24.17
2018-03-31T15:38:54.950Z,23.80
2018-03-31T15:41:22.597Z,22.98
2018-03-31T15:43:50.390Z,22.85
2018-03-31T15:46:18.181Z,22.33
2018-03-31T15:48:45.856Z,22.64
2018-03-31T15:51:13.615Z,21.88
2018-03-31T15:53:41.387Z,21.72
2018-03-31T15:56:09.025Z,22.07
2018-03-31T15:58:36.644Z,21.69
2018-03-31T16:01:04.206Z,21.12
2018-03-31T16:03:31.846Z,21.07
2018-03-31T16:05:59.437Z,21.02
2018-03-31T16:08:27.244Z,20.93
2018-03-31T16:10:54.883Z,21.20
2018-03-31T16:13:22.464Z,21.36
2018-03-31T16:15:50.102Z,21.25
2018-03-31T16:18:17.683Z,21.10
2018-03-31T16:20:45.565Z,20.76
2018-03-31T16:23:13.139Z,20.61
2018-03-31T16:25:40.747Z,20.35
2018-03-31T16:28:08.701Z,20.29
2018-03-31T16:30:36.339Z,20.33
2018-03-31T16:33:04.004Z,20.30
2018-03-31T16:35:32.269Z,19.92
2018-03-31T16:37:59.881Z,20.02
2018-03-31T16:40:27.542Z,19.69
2018-03-31T16:42:55.197Z,19.84
2018-03-31T16:45:22.789Z,19.82
2018-03-31T16:47:50.398Z,19.37
2018-03-31T16:50:18.100Z,19.57
2018-03-31T16:52:45.721Z,19.35
2018-03-31T16:55:13.394Z,19.57
2018-03-31T16:57:40.970Z,19.62
2018-03-31T17:00:08.649Z,19.54
2018-03-31T17:02:36.289Z,19.55
2018-03-31T17:05:03.889Z,19.56
2018-03-31T17:07:31.493Z,19.60
2018-03-31T17:09:59.069Z,19.58
2018-03-31T17:12:26.690Z,19.54
2018-03-31T17:14:54.251Z,19.42
2018-03-31T17:17:21.856Z,19.47
2018-03-31T17:19:49.474Z,19.37
2018-03-31T17:22:17.042Z,19.51
2018-03-31T17:24:44.669Z,19.46
2018-03-31T17:27:12.270Z,19.28
2018-03-31T17:29:40.038Z,18.95
2018-03-31T17:32:07.673Z,18.83
2018-03-31T17:34:35.245Z,18.89
2018-03-31T17:37:02.829Z,18.82
2018-03-31T17:39:30.457Z,18.60
2018-03-31T17:41:58.040Z,18.92
2018-03-31T17:44:25.673Z,18.83
2018-03-31T17:46:53.342Z,18.87
2018-03-31T17:49:21.044Z,18.77
2018-03-31T17:51:48.760Z,18.97
2018-03-31T17:54:16.448Z,19.04
2018-03-31T17:56:44.048Z,18.87
2018-03-31T17:59:11.624Z,18.88
2018-03-31T18:01:39.185Z,19.22
2018-03-31T18:04:06.832Z,19.34
2018-03-31T18:06:34.417Z,19.47
2018-03-31T18:09:02.027Z,19.33
2018-03-31T18:11:29.645Z,19.24
2018-03-31T18:13:57.264Z,19.24
2018-03-31T18:16:24.881Z,19.12
2018-03-31T18:18:52.456Z,18.77
2018-03-31T18:21:20.077Z,18.41
2018-03-31T18:23:47.645Z,18.46
2018-03-31T18:26:15.236Z,18.25
2018-03-31T18:28:42.871Z,17.44
2018-03-31T18:31:10.444Z,17.11
2018-03-31T18:33:38.109Z,16.62
2018-03-31T18:36:05.733Z,16.58
2018-03-31T18:38:33.373Z,17.03
2018-03-31T18:41:00.988Z,16.77
2018-03-31T18:43:28.608Z,16.34
2018-03-31T18:45:56.242Z,16.39
2018-03-31T18:48:23.906Z,16.22
2018-03-31T18:50:51.532Z,16.12
2018-03-31T18:53:19.147Z,15.99
2018-03-31T18:55:46.924Z,15.53
2018-03-31T18:58:14.592Z,15.35
2018-03-31T19:00:42.225Z,15.14
2018-03-31T19:03:09.854Z,15.05
2018-03-31T19:05:37.626Z,14.96
2018-03-31T19:08:05.212Z,14.85
2018-03-31T19:10:32.804Z,14.75
2018-03-31T19:13:00.608Z,15.10
2018-03-31T19:15:28.197Z,14.91
2018-03-31T19:17:55.829Z,15.02
2018-03-31T19:20:23.524Z,14.38
2018-03-31T19:22:51.126Z,14.25
2018-03-31T19:25:24.300Z,14.27
2018-03-31T19:27:51.922Z,14.44
2018-03-31T19:30:19.601Z,14.07
2018-03-31T19:32:47.253Z,13.79
2018-03-31T19:35:15.049Z,14.27
2018-03-31T19:37:42.647Z,14.13
2018-03-31T19:40:10.221Z,13.99
2018-03-31T19:42:37.808Z,14.07
2018-03-31T19:45:05.398Z,14.02
2018-03-31T19:47:33.008Z,13.86
2018-03-31T19:50:00.712Z,13.85
2018-03-31T19:52:28.321Z,14.08
2018-03-31T19:54:55.918Z,14.05
2018-03-31T19:57:23.543Z,13.77
2018-03-31T19:59:51.183Z,13.95
2018-03-31T20:02:18.833Z,14.06
2018-03-31T20:04:46.435Z,14.21
2018-03-31T20:07:14.020Z,14.13
2018-03-31T20:09:41.640Z,13.83
2018-03-31T20:12:09.235Z,13.84
2018-03-31T20:14:36.845Z,13.76
2018-03-31T20:17:04.512Z,13.91
2018-03-31T20:19:32.163Z,13.83
2018-03-31T20:21:59.752Z,13.94
2018-03-31T20:24:27.329Z,13.86
2018-03-31T20:26:54.995Z,14.00
2018-03-31T20:29:22.636Z,14.52
2018-03-31T20:31:50.274Z,14.56
2018-03-31T20:34:17.841Z,14.43
2018-03-31T20:36:45.477Z,14.32
2018-03-31T20:39:13.060Z,14.76
2018-03-31T20:41:40.662Z,15.30
2018-03-31T20:44:08.227Z,15.69
2018-03-31T20:46:35.917Z,16.31
2018-03-31T20:49:03.502Z,16.31
2018-03-31T20:51:31.110Z,16.38
2018-03-31T20:53:58.735Z,16.20
2018-03-31T20:56:26.434Z,15.76
2018-03-31T20:58:54.198Z,15.80
2018-03-31T21:01:21.765Z,15.97
2018-03-31T21:03:49.380Z,16.29
2018-03-31T21:06:16.940Z,16.32
2018-03-31T21:08:44.644Z,16.09
2018-03-31T21:11:12.301Z,15.90
2018-03-31T21:13:39.869Z,15.89
2018-03-31T21:16:07.548Z,15.53
2018-03-31T21:18:35.261Z,15.31
2018-03-31T21:21:02.804Z,15.28
2018-03-31T21:23:30.418Z,15.35
2018-03-31T21:25:57.985Z,15.27
2018-03-31T21:28:25.637Z,15.30
2018-03-31T21:30:53.225Z,14.93
2018-03-31T21:33:20.849Z,14.80
2018-03-31T21:35:48.491Z,15.04
2018-03-31T21:38:16.064Z,15.07
2018-03-31T21:40:43.684Z,15.16
2018-03-31T21:43:11.249Z,15.19
2018-03-31T21:45:38.979Z,15.06
2018-03-31T21:48:06.596Z,15.29
2018-03-31T21:50:34.262Z,15.30
2018-03-31T21:53:01.837Z,15.37
2018-03-31T21:55:29.449Z,14.99
2018-03-31T21:57:57.097Z,15.03
2018-03-31T22:00:24.729Z,14.97
2018-03-31T22:02:52.407Z,15.28
2018-03-31T22:05:19.978Z,15.21
2018-03-31T22:07:47.586Z,14.69
2018-03-31T22:10:15.172Z,14.60
2018-03-31T22:12:42.868Z,14.36
2018-03-31T22:15:16.109Z,14.11
2018-03-31T22:17:43.746Z,13.98
2018-03-31T22:20:11.317Z,14.00
2018-03-31T22:22:38.959Z,13.98
2018-03-31T22:25:06.530Z,13.91
2018-03-31T22:27:34.128Z,13.84
2018-03-31T22:30:01.852Z,13.73
2018-03-31T22:32:29.416Z,13.84
2018-03-31T22:34:56.990Z,13.85
2018-03-31T22:37:24.564Z,13.89
2018-03-31T22:39:52.177Z,13.63
2018-03-31T22:42:19.751Z,13.46
2018-03-31T22:44:47.371Z,13.57
2018-03-31T22:47:14.944Z,13.38
2018-03-31T22:49:42.509Z,13.53
2018-03-31T22:52:10.125Z,13.65
2018-03-31T22:54:37.725Z,13.65
2018-03-31T22:57:05.329Z,13.81
2018-03-31T22:59:33.002Z,13.64
2018-03-31T23:02:00.579Z,13.43
2018-03-31T23:04:28.472Z,13.44
2018-03-31T23:06:56.327Z,13.82
2018-03-31T23:09:24.238Z,13.95
2018-03-31T23:11:52.120Z,14.31
2018-03-31T23:14:19.993Z,14.09
2018-03-31T23:16:47.926Z,13.82
2018-03-31T23:19:15.815Z,13.78
2018-03-31T23:21:43.884Z,14.31
2018-03-31T23:24:11.745Z,14.63
2018-03-31T23:26:39.712Z,14.42
2018-03-31T23:29:07.643Z,14.42
2018-03-31T23:31:35.492Z,14.69
2018-03-31T23:34:03.369Z,14.93
2018-03-31T23:36:31.294Z,15.37
2018-03-31T23:38:58.864Z,16.68
2018-03-31T23:41:26.502Z,16.62
2018-03-31T23:43:54.107Z,17.00
2018-03-31T23:46:21.686Z,17.29
2018-03-31T23:48:49.326Z,17.31
2018-03-31T23:51:16.913Z,17.31
2018-03-31T23:53:44.505Z,17.05
2018-03-31T23:56:12.137Z,17.33
2018-03-31T23:58:39.771Z,17.11
